sensor_id;sensor_type;location;lat;lon;timestamp;P1;durP1;ratioP1;P2;durP2;ratioP2
45905;SDS011;31619;49.008;12.106;2023-05-07T00:00:00;4.80;;;4.10;;
45905;SDS011;31619;49.008;12.106;2023-05-07T00:02:26;4.40;;;4.00;;
45905;SDS011;31619;49.008;12.106;2023-05-07T00:04:51;4.28;;;3.67;;
45905;SDS011;31619;49.008;12.106;2023-05-07T00:07:17;4.25;;;3.85;;
45905;SDS011;31619;49.008;12.106;2023-05-07T00:09:43;4.07;;;3.80;;
45905;SDS011;31619;49.008;12.106;2023-05-07T00:12:09;3.50;;;3.30;;
45905;SDS011;31619;49.008;12.106;2023-05-07T00:14:35;3.75;;;3.55;;
45905;SDS011;31619;49.008;12.106;2023-05-07T00:17:00;4.25;;;3.92;;
45905;SDS011;31619;49.008;12.106;2023-05-07T00:19:26;4.00;;;3.70;;
45905;SDS011;31619;49.008;12.106;2023-05-07T00:21:51;3.78;;;3.58;;
45905;SDS011;31619;49.008;12.106;2023-05-07T00:24:19;4.43;;;3.90;;
45905;SDS011;31619;49.008;12.106;2023-05-07T00:26:44;4.25;;;3.78;;
45905;SDS011;31619;49.008;12.106;2023-05-07T00:29:10;3.38;;;3.10;;
45905;SDS011;31619;49.008;12.106;2023-05-07T00:31:36;5.22;;;4.43;;
45905;SDS011;31619;49.008;12.106;2023-05-07T00:34:02;4.45;;;3.42;;
45905;SDS011;31619;49.008;12.106;2023-05-07T00:36:27;3.60;;;3.40;;
45905;SDS011;31619;49.008;12.106;2023-05-07T00:38:54;3.85;;;3.55;;
45905;SDS011;31619;49.008;12.106;2023-05-07T00:41:21;3.70;;;3.50;;
45905;SDS011;31619;49.008;12.106;2023-05-07T00:43:47;5.30;;;3.58;;
45905;SDS011;31619;49.008;12.106;2023-05-07T00:46:13;4.20;;;3.78;;
45905;SDS011;31619;49.008;12.106;2023-05-07T00:48:39;4.55;;;4.00;;
45905;SDS011;31619;49.008;12.106;2023-05-07T00:51:05;4.22;;;3.33;;
45905;SDS011;31619;49.008;12.106;2023-05-07T00:53:32;4.03;;;3.60;;
45905;SDS011;31619;49.008;12.106;2023-05-07T00:55:57;4.53;;;4.13;;
45905;SDS011;31619;49.008;12.106;2023-05-07T00:58:23;3.63;;;3.42;;
45905;SDS011;31619;49.008;12.106;2023-05-07T01:00:49;4.18;;;3.78;;
45905;SDS011;31619;49.008;12.106;2023-05-07T01:03:15;3.78;;;3.58;;
45905;SDS011;31619;49.008;12.106;2023-05-07T01:05:41;3.88;;;3.58;;
45905;SDS011;31619;49.008;12.106;2023-05-07T01:08:08;4.43;;;3.85;;
45905;SDS011;31619;49.008;12.106;2023-05-07T01:10:34;5.40;;;4.03;;
45905;SDS011;31619;49.008;12.106;2023-05-07T01:12:59;3.65;;;3.35;;
45905;SDS011;31619;49.008;12.106;2023-05-07T01:15:26;4.05;;;3.75;;
45905;SDS011;31619;49.008;12.106;2023-05-07T01:17:51;4.15;;;3.85;;
45905;SDS011;31619;49.008;12.106;2023-05-07T01:20:18;4.15;;;3.75;;
45905;SDS011;31619;49.008;12.106;2023-05-07T01:22:44;6.15;;;4.07;;
45905;SDS011;31619;49.008;12.106;2023-05-07T01:25:10;4.43;;;3.92;;
45905;SDS011;31619;49.008;12.106;2023-05-07T01:27:36;3.58;;;3.28;;
45905;SDS011;31619;49.008;12.106;2023-05-07T01:30:03;4.55;;;3.75;;
45905;SDS011;31619;49.008;12.106;2023-05-07T01:32:35;4.70;;;4.25;;
45905;SDS011;31619;49.008;12.106;2023-05-07T01:35:16;4.40;;;4.10;;
45905;SDS011;31619;49.008;12.106;2023-05-07T01:37:45;4.20;;;3.90;;
45905;SDS011;31619;49.008;12.106;2023-05-07T01:40:12;4.18;;;3.88;;
45905;SDS011;31619;49.008;12.106;2023-05-07T01:42:38;4.20;;;3.90;;
45905;SDS011;31619;49.008;12.106;2023-05-07T01:45:05;4.35;;;4.07;;
45905;SDS011;31619;49.008;12.106;2023-05-07T01:47:31;4.03;;;3.78;;
45905;SDS011;31619;49.008;12.106;2023-05-07T01:49:57;4.35;;;3.95;;
45905;SDS011;31619;49.008;12.106;2023-05-07T01:52:23;4.72;;;4.32;;
45905;SDS011;31619;49.008;12.106;2023-05-07T01:54:50;4.53;;;3.83;;
45905;SDS011;31619;49.008;12.106;2023-05-07T01:57:15;4.78;;;4.15;;
45905;SDS011;31619;49.008;12.106;2023-05-07T01:59:41;4.80;;;4.43;;
45905;SDS011;31619;49.008;12.106;2023-05-07T02:02:06;4.63;;;4.22;;
45905;SDS011;31619;49.008;12.106;2023-05-07T02:04:32;5.60;;;3.90;;
45905;SDS011;31619;49.008;12.106;2023-05-07T02:06:58;4.88;;;4.25;;
45905;SDS011;31619;49.008;12.106;2023-05-07T02:09:23;4.93;;;4.57;;
45905;SDS011;31619;49.008;12.106;2023-05-07T02:11:49;6.15;;;4.72;;
45905;SDS011;31619;49.008;12.106;2023-05-07T02:14:14;7.40;;;5.15;;
45905;SDS011;31619;49.008;12.106;2023-05-07T02:16:40;5.97;;;4.70;;
45905;SDS011;31619;49.008;12.106;2023-05-07T02:19:06;5.22;;;4.82;;
45905;SDS011;31619;49.008;12.106;2023-05-07T02:21:32;4.93;;;4.50;;
45905;SDS011;31619;49.008;12.106;2023-05-07T02:23:57;5.10;;;4.70;;
45905;SDS011;31619;49.008;12.106;2023-05-07T02:26:23;4.85;;;4.45;;
45905;SDS011;31619;49.008;12.106;2023-05-07T02:28:49;5.43;;;4.93;;
45905;SDS011;31619;49.008;12.106;2023-05-07T02:31:15;6.38;;;5.68;;
45905;SDS011;31619;49.008;12.106;2023-05-07T02:33:41;5.75;;;5.25;;
45905;SDS011;31619;49.008;12.106;2023-05-07T02:36:10;5.38;;;4.88;;
45905;SDS011;31619;49.008;12.106;2023-05-07T02:38:36;6.35;;;5.43;;
45905;SDS011;31619;49.008;12.106;2023-05-07T02:41:02;5.80;;;5.30;;
45905;SDS011;31619;49.008;12.106;2023-05-07T02:43:28;5.97;;;5.57;;
45905;SDS011;31619;49.008;12.106;2023-05-07T02:46:06;5.65;;;5.28;;
45905;SDS011;31619;49.008;12.106;2023-05-07T02:48:33;5.90;;;5.38;;
45905;SDS011;31619;49.008;12.106;2023-05-07T02:50:59;7.00;;;6.40;;
45905;SDS011;31619;49.008;12.106;2023-05-07T02:53:25;6.20;;;5.70;;
45905;SDS011;31619;49.008;12.106;2023-05-07T02:55:52;6.20;;;5.70;;
45905;SDS011;31619;49.008;12.106;2023-05-07T02:58:18;6.38;;;5.88;;
45905;SDS011;31619;49.008;12.106;2023-05-07T03:00:44;7.07;;;6.47;;
45905;SDS011;31619;49.008;12.106;2023-05-07T03:03:10;6.50;;;5.97;;
45905;SDS011;31619;49.008;12.106;2023-05-07T03:05:45;7.35;;;5.85;;
45905;SDS011;31619;49.008;12.106;2023-05-07T03:08:11;7.03;;;6.40;;
45905;SDS011;31619;49.008;12.106;2023-05-07T03:10:37;6.43;;;5.88;;
45905;SDS011;31619;49.008;12.106;2023-05-07T03:13:02;7.25;;;6.63;;
45905;SDS011;31619;49.008;12.106;2023-05-07T03:15:28;7.25;;;6.53;;
45905;SDS011;31619;49.008;12.106;2023-05-07T03:17:54;6.88;;;6.38;;
45905;SDS011;31619;49.008;12.106;2023-05-07T03:20:20;7.53;;;6.80;;
45905;SDS011;31619;49.008;12.106;2023-05-07T03:22:46;7.15;;;6.55;;
45905;SDS011;31619;49.008;12.106;2023-05-07T03:25:11;7.55;;;6.88;;
45905;SDS011;31619;49.008;12.106;2023-05-07T03:27:37;7.53;;;6.93;;
45905;SDS011;31619;49.008;12.106;2023-05-07T03:30:03;6.65;;;6.15;;
45905;SDS011;31619;49.008;12.106;2023-05-07T03:32:29;8.07;;;7.28;;
45905;SDS011;31619;49.008;12.106;2023-05-07T03:34:55;8.07;;;7.22;;
45905;SDS011;31619;49.008;12.106;2023-05-07T03:37:21;8.35;;;7.65;;
45905;SDS011;31619;49.008;12.106;2023-05-07T03:39:46;7.38;;;6.88;;
45905;SDS011;31619;49.008;12.106;2023-05-07T03:42:13;7.60;;;7.00;;
45905;SDS011;31619;49.008;12.106;2023-05-07T03:44:39;7.65;;;7.05;;
45905;SDS011;31619;49.008;12.106;2023-05-07T03:47:05;7.88;;;7.28;;
45905;SDS011;31619;49.008;12.106;2023-05-07T03:49:31;8.13;;;7.45;;
45905;SDS011;31619;49.008;12.106;2023-05-07T03:51:56;8.73;;;7.28;;
45905;SDS011;31619;49.008;12.106;2023-05-07T03:54:22;8.07;;;7.38;;
45905;SDS011;31619;49.008;12.106;2023-05-07T03:56:48;7.72;;;6.90;;
45905;SDS011;31619;49.008;12.106;2023-05-07T03:59:14;8.35;;;7.30;;
45905;SDS011;31619;49.008;12.106;2023-05-07T04:01:39;8.88;;;7.93;;
45905;SDS011;31619;49.008;12.106;2023-05-07T04:04:05;9.05;;;8.13;;
45905;SDS011;31619;49.008;12.106;2023-05-07T04:06:31;8.18;;;6.82;;
45905;SDS011;31619;49.008;12.106;2023-05-07T04:08:56;8.15;;;7.45;;
45905;SDS011;31619;49.008;12.106;2023-05-07T04:11:22;8.93;;;8.07;;
45905;SDS011;31619;49.008;12.106;2023-05-07T04:13:48;8.90;;;8.00;;
45905;SDS011;31619;49.008;12.106;2023-05-07T04:16:14;7.88;;;7.07;;
45905;SDS011;31619;49.008;12.106;2023-05-07T04:18:40;8.02;;;7.35;;
45905;SDS011;31619;49.008;12.106;2023-05-07T04:21:13;7.78;;;6.90;;
45905;SDS011;31619;49.008;12.106;2023-05-07T04:23:42;7.18;;;6.57;;
45905;SDS011;31619;49.008;12.106;2023-05-07T04:26:08;7.15;;;6.35;;
45905;SDS011;31619;49.008;12.106;2023-05-07T04:28:34;7.40;;;6.70;;
45905;SDS011;31619;49.008;12.106;2023-05-07T04:31:00;6.72;;;6.18;;
45905;SDS011;31619;49.008;12.106;2023-05-07T04:33:25;7.00;;;6.30;;
45905;SDS011;31619;49.008;12.106;2023-05-07T04:35:51;7.03;;;6.43;;
45905;SDS011;31619;49.008;12.106;2023-05-07T04:38:17;8.43;;;6.10;;
45905;SDS011;31619;49.008;12.106;2023-05-07T04:40:43;6.82;;;6.32;;
45905;SDS011;31619;49.008;12.106;2023-05-07T04:43:09;7.03;;;6.47;;
45905;SDS011;31619;49.008;12.106;2023-05-07T04:45:35;7.03;;;6.43;;
45905;SDS011;31619;49.008;12.106;2023-05-07T04:48:01;7.10;;;6.40;;
45905;SDS011;31619;49.008;12.106;2023-05-07T04:50:27;6.55;;;6.03;;
45905;SDS011;31619;49.008;12.106;2023-05-07T04:52:52;6.45;;;5.95;;
45905;SDS011;31619;49.008;12.106;2023-05-07T04:55:18;7.53;;;6.57;;
45905;SDS011;31619;49.008;12.106;2023-05-07T04:57:43;7.57;;;6.05;;
45905;SDS011;31619;49.008;12.106;2023-05-07T05:00:10;7.25;;;6.65;;
45905;SDS011;31619;49.008;12.106;2023-05-07T05:02:39;7.80;;;7.00;;
45905;SDS011;31619;49.008;12.106;2023-05-07T05:05:05;6.65;;;6.10;;
45905;SDS011;31619;49.008;12.106;2023-05-07T05:07:32;7.45;;;6.72;;
